createdAt,value
2022-11-22T00:00:28.308Z,12.85
2022-11-22T00:02:54.979Z,12.87
2022-11-22T00:05:22.047Z,12.87
2022-11-22T00:07:48.487Z,12.87
2022-11-22T00:10:15.554Z,12.88
2022-11-22T00:12:42.088Z,12.87
2022-11-22T00:15:09.749Z,12.88
2022-11-22T00:17:36.821Z,12.86
2022-11-22T00:20:04.745Z,12.84
2022-11-22T00:22:32.311Z,12.85
2022-11-22T00:24:58.730Z,12.85
2022-11-22T00:27:26.409Z,12.84
2022-11-22T00:29:52.761Z,12.83
2022-11-22T00:32:19.134Z,12.83
2022-11-22T00:34:45.727Z,12.81
2022-11-22T00:37:13.079Z,12.83
2022-11-22T00:39:39.489Z,12.83
2022-11-22T00:42:05.782Z,12.83
2022-11-22T00:44:32.294Z,12.83
2022-11-22T00:46:58.867Z,12.82
2022-11-22T00:49:25.287Z,12.83
2022-11-22T00:51:51.874Z,12.84
2022-11-22T00:54:18.425Z,12.83
2022-11-22T00:56:44.972Z,12.83
2022-11-22T00:59:11.363Z,12.82
2022-11-22T01:01:37.816Z,12.84
2022-11-22T01:04:05.118Z,12.86
2022-11-22T01:06:31.819Z,12.85
2022-11-22T01:08:59.379Z,12.88
2022-11-22T01:11:25.730Z,12.88
2022-11-22T01:13:52.147Z,12.88
2022-11-22T01:16:18.662Z,12.89
2022-11-22T01:18:45.699Z,12.90
2022-11-22T01:21:12.734Z,12.90
2022-11-22T01:23:39.369Z,12.90
2022-11-22T01:26:09.374Z,12.90
2022-11-22T01:28:36.269Z,12.92
2022-11-22T01:31:03.473Z,12.93
2022-11-22T01:33:29.887Z,12.94
2022-11-22T01:35:58.233Z,12.94
2022-11-22T01:38:25.193Z,12.95
2022-11-22T01:40:52.262Z,12.96
2022-11-22T01:43:24.579Z,12.96
2022-11-22T01:45:53.518Z,12.96
2022-11-22T01:48:28.299Z,12.96
2022-11-22T01:51:00.708Z,12.98
2022-11-22T01:53:32.249Z,12.98
2022-11-22T01:56:01.101Z,13.00
2022-11-22T01:58:31.089Z,13.00
2022-11-22T02:00:57.590Z,12.99
2022-11-22T02:03:25.263Z,12.98
2022-11-22T02:05:53.604Z,12.98
2022-11-22T02:08:37.837Z,12.99
2022-11-22T02:11:05.230Z,13.00
2022-11-22T02:13:37.541Z,12.99
2022-11-22T02:16:04.047Z,12.99
2022-11-22T02:18:30.553Z,12.99
2022-11-22T02:20:58.452Z,12.98
2022-11-22T02:23:50.607Z,12.94
2022-11-22T02:26:17.059Z,12.97
2022-11-22T02:28:43.640Z,12.95
2022-11-22T02:31:33.718Z,12.93
2022-11-22T02:34:01.702Z,12.97
2022-11-22T02:36:30.198Z,12.97
2022-11-22T02:38:56.821Z,12.96
2022-11-22T02:41:23.262Z,12.96
2022-11-22T02:43:50.371Z,12.95
2022-11-22T02:46:20.577Z,12.95
2022-11-22T02:48:47.555Z,12.96
2022-11-22T02:51:16.888Z,12.96
2022-11-22T02:53:44.938Z,12.95
2022-11-22T02:56:11.684Z,12.98
2022-11-22T02:58:38.609Z,12.97
2022-11-22T03:01:05.380Z,12.97
2022-11-22T03:03:32.921Z,12.97
2022-11-22T03:05:59.423Z,12.97
2022-11-22T03:08:25.703Z,12.95
2022-11-22T03:10:52.232Z,12.99
2022-11-22T03:13:18.561Z,13.00
2022-11-22T03:15:50.832Z,13.01
2022-11-22T03:18:17.123Z,13.04
2022-11-22T03:20:43.593Z,13.05
2022-11-22T03:23:09.884Z,13.05
2022-11-22T03:25:47.456Z,13.07
2022-11-22T03:28:13.834Z,13.08
2022-11-22T03:30:41.233Z,13.09
2022-11-22T03:33:07.811Z,13.10
2022-11-22T03:35:34.183Z,13.11
2022-11-22T03:38:00.676Z,13.12
2022-11-22T03:40:27.035Z,13.12
2022-11-22T03:42:54.413Z,13.11
2022-11-22T03:45:20.782Z,13.11
2022-11-22T03:47:48.490Z,13.10
2022-11-22T03:50:16.188Z,13.09
2022-11-22T03:52:42.566Z,13.08
2022-11-22T03:55:09.322Z,13.07
2022-11-22T03:57:35.852Z,13.08
2022-11-22T04:00:02.143Z,13.07
2022-11-22T04:02:28.456Z,13.08
2022-11-22T04:04:54.809Z,13.09
2022-11-22T04:07:21.379Z,13.08
2022-11-22T04:09:48.016Z,13.05
2022-11-22T04:12:14.624Z,13.05
2022-11-22T04:14:59.359Z,13.01
2022-11-22T04:17:40.695Z,12.98
2022-11-22T04:20:38.044Z,12.90
2022-11-22T04:23:10.225Z,12.89
2022-11-22T04:25:39.178Z,12.85
2022-11-22T04:28:07.241Z,12.81
2022-11-22T04:30:52.914Z,12.78
2022-11-22T04:33:19.482Z,12.75
2022-11-22T04:35:47.432Z,12.71
2022-11-22T04:38:14.529Z,12.71
2022-11-22T04:40:41.463Z,12.68
2022-11-22T04:43:28.563Z,12.69
2022-11-22T04:45:54.921Z,12.68
2022-11-22T04:48:21.246Z,12.70
2022-11-22T04:51:06.032Z,12.71
2022-11-22T04:53:32.617Z,12.73
2022-11-22T04:55:58.958Z,12.73
2022-11-22T04:58:25.394Z,12.77
2022-11-22T05:00:52.837Z,12.78
2022-11-22T05:03:19.461Z,12.80
2022-11-22T05:05:45.957Z,12.79
2022-11-22T05:08:13.114Z,12.78
2022-11-22T05:11:09.495Z,12.75
2022-11-22T05:13:40.914Z,12.70
2022-11-22T05:16:09.684Z,12.63
2022-11-22T05:18:37.563Z,12.57
2022-11-22T05:21:11.814Z,12.52
2022-11-22T05:23:56.922Z,12.45
2022-11-22T05:26:29.148Z,12.35
2022-11-22T05:28:58.105Z,12.29
2022-11-22T05:31:27.302Z,12.21
2022-11-22T05:33:55.516Z,12.13
2022-11-22T05:36:22.929Z,12.05
2022-11-22T05:38:49.690Z,11.98
2022-11-22T05:41:17.151Z,11.91
2022-11-22T05:43:45.222Z,11.83
2022-11-22T05:46:14.254Z,11.76
2022-11-22T05:48:44.363Z,11.69
2022-11-22T05:51:14.220Z,11.62
2022-11-22T05:53:42.193Z,11.56
2022-11-22T05:56:10.949Z,11.48
2022-11-22T05:58:37.669Z,11.44
2022-11-22T06:01:17.066Z,11.36
2022-11-22T06:03:45.492Z,11.33
2022-11-22T06:06:12.268Z,11.27
2022-11-22T06:08:46.709Z,11.19
2022-11-22T06:11:19.620Z,11.14
2022-11-22T06:13:48.888Z,11.12
2022-11-22T06:16:16.106Z,11.10
2022-11-22T06:18:42.873Z,11.09
2022-11-22T06:21:15.502Z,11.09
2022-11-22T06:23:42.157Z,11.10
2022-11-22T06:26:14.772Z,11.10
2022-11-22T06:28:42.012Z,11.14
2022-11-22T06:31:14.307Z,11.13
2022-11-22T06:33:41.366Z,11.17
2022-11-22T06:36:10.920Z,11.18
2022-11-22T06:38:38.344Z,11.22
2022-11-22T06:41:07.444Z,11.24
2022-11-22T06:43:35.160Z,11.26
2022-11-22T06:46:03.245Z,11.26
2022-11-22T06:48:31.435Z,11.27
2022-11-22T06:51:12.680Z,11.29
2022-11-22T06:53:47.445Z,11.32
2022-11-22T06:56:16.028Z,11.34
2022-11-22T06:58:43.182Z,11.35
2022-11-22T07:01:15.458Z,11.33
2022-11-22T07:03:42.732Z,11.36
2022-11-22T07:06:11.154Z,11.37
2022-11-22T07:08:38.885Z,11.38
2022-11-22T07:11:12.104Z,11.36
2022-11-22T07:13:38.904Z,11.39
2022-11-22T07:16:08.076Z,11.41
2022-11-22T07:18:34.465Z,11.41
2022-11-22T07:21:10.923Z,11.43
2022-11-22T07:23:41.073Z,11.44
2022-11-22T07:26:07.529Z,11.45
2022-11-22T07:28:34.152Z,11.46
2022-11-22T07:31:02.525Z,11.47
2022-11-22T07:33:30.033Z,11.48
2022-11-22T07:36:03.361Z,11.49
2022-11-22T07:38:29.892Z,11.50
2022-11-22T07:40:56.253Z,11.53
2022-11-22T07:43:22.765Z,11.54
2022-11-22T07:45:49.100Z,11.56
2022-11-22T07:48:15.633Z,11.56
2022-11-22T07:50:42.580Z,11.57
2022-11-22T07:53:10.361Z,11.59
2022-11-22T07:55:36.774Z,11.62
2022-11-22T07:58:03.274Z,11.64
2022-11-22T08:00:29.959Z,11.66
2022-11-22T08:02:57.709Z,11.69
2022-11-22T08:05:24.134Z,11.72
2022-11-22T08:07:54.104Z,11.74
2022-11-22T08:10:21.401Z,11.79
2022-11-22T08:12:48.047Z,11.83
2022-11-22T08:15:15.849Z,11.87
2022-11-22T08:17:42.284Z,11.92
2022-11-22T08:20:10.222Z,11.97
2022-11-22T08:22:39.006Z,12.01
2022-11-22T08:25:08.839Z,12.07
2022-11-22T08:27:36.494Z,12.10
2022-11-22T08:30:05.262Z,12.16
2022-11-22T08:32:31.584Z,12.21
2022-11-22T08:34:57.953Z,12.25
2022-11-22T08:37:24.346Z,12.28
2022-11-22T08:39:50.774Z,12.33
2022-11-22T08:42:18.946Z,12.34
2022-11-22T08:44:45.241Z,12.38
2022-11-22T08:47:13.386Z,12.41
2022-11-22T08:49:40.881Z,12.43
2022-11-22T08:52:07.468Z,12.47
2022-11-22T08:54:37.684Z,12.50
2022-11-22T08:57:04.613Z,12.53
2022-11-22T08:59:31.164Z,12.57
2022-11-22T09:01:57.788Z,12.63
2022-11-22T09:04:24.327Z,12.66
2022-11-22T09:09:38.724Z,12.78
2022-11-22T09:12:05.727Z,12.83
2022-11-22T09:14:32.095Z,12.89
2022-11-22T09:16:58.588Z,12.94
2022-11-22T09:19:25.576Z,12.99
2022-11-22T09:21:52.131Z,13.03
2022-11-22T09:24:18.524Z,13.09
2022-11-22T09:26:45.234Z,13.13
2022-11-22T09:29:11.915Z,13.18
2022-11-22T09:31:38.648Z,13.23
2022-11-22T09:34:04.991Z,13.28
2022-11-22T09:36:31.322Z,13.33
2022-11-22T09:38:59.844Z,13.37
2022-11-22T09:41:46.185Z,13.44
2022-11-22T09:44:54.610Z,13.52
2022-11-22T09:47:41.859Z,13.57
2022-11-22T09:50:29.459Z,13.61
2022-11-22T09:53:03.434Z,13.69
2022-11-22T09:55:38.054Z,13.72
2022-11-22T09:58:12.515Z,13.76
2022-11-22T10:00:44.433Z,13.82
2022-11-22T10:03:25.139Z,13.86
2022-11-22T10:05:58.235Z,13.93
2022-11-22T10:08:24.560Z,13.96
2022-11-22T10:10:54.379Z,14.00
2022-11-22T10:13:31.539Z,14.04
2022-11-22T10:16:09.831Z,14.09
2022-11-22T10:18:59.182Z,14.11
2022-11-22T10:21:27.492Z,14.18
2022-11-22T10:23:54.074Z,14.23
2022-11-22T10:26:29.347Z,14.24
2022-11-22T10:29:35.790Z,14.28
2022-11-22T10:32:22.677Z,14.34
2022-11-22T10:35:13.530Z,14.40
2022-11-22T10:38:17.601Z,14.46
2022-11-22T10:40:57.630Z,14.53
2022-11-22T10:43:36.124Z,14.60
2022-11-22T10:46:06.362Z,14.66
2022-11-22T10:48:42.367Z,14.71
2022-11-22T10:51:33.535Z,14.74
2022-11-22T10:54:20.357Z,14.82
2022-11-22T10:56:55.369Z,14.87
2022-11-22T10:59:43.870Z,14.93
2022-11-22T11:02:13.302Z,15.04
2022-11-22T11:04:43.151Z,15.07
2022-11-22T11:07:20.523Z,15.13
2022-11-22T11:10:11.473Z,15.19
2022-11-22T11:12:46.567Z,15.24
2022-11-22T11:15:20.976Z,15.32
2022-11-22T11:17:53.419Z,15.40
2022-11-22T11:20:27.831Z,15.46
2022-11-22T11:25:43.575Z,15.52
2022-11-22T11:28:18.689Z,15.51
2022-11-22T11:30:57.205Z,15.49
2022-11-22T11:33:31.091Z,15.50
2022-11-22T11:36:05.493Z,15.49
2022-11-22T11:38:41.049Z,15.45
2022-11-22T11:41:28.873Z,15.42
2022-11-22T11:43:59.581Z,15.45
2022-11-22T11:46:44.100Z,15.42
2022-11-22T11:49:18.607Z,15.39
2022-11-22T11:51:54.378Z,15.39
2022-11-22T11:54:23.918Z,15.39
2022-11-22T11:56:57.853Z,15.36
2022-11-22T11:59:44.574Z,15.34
2022-11-22T12:02:14.965Z,15.37
2022-11-22T12:04:59.503Z,15.36
2022-11-22T12:07:28.550Z,15.38
2022-11-22T12:09:56.083Z,15.38
2022-11-22T12:12:34.236Z,15.37
2022-11-22T12:15:36.404Z,15.40
2022-11-22T12:18:33.036Z,15.42
2022-11-22T12:21:02.604Z,15.50
2022-11-22T12:23:50.900Z,15.47
2022-11-22T12:26:18.384Z,15.49
2022-11-22T12:28:44.713Z,15.45
2022-11-22T12:31:44.641Z,15.36
2022-11-22T12:34:48.402Z,15.34
2022-11-22T12:37:19.066Z,15.33
2022-11-22T12:39:51.440Z,15.31
2022-11-22T12:42:29.734Z,15.28
2022-11-22T12:45:11.786Z,15.27
2022-11-22T12:47:44.619Z,15.27
2022-11-22T12:50:35.475Z,15.26
2022-11-22T12:53:14.140Z,15.25
2022-11-22T12:55:49.442Z,15.26
2022-11-22T12:58:24.402Z,15.27
2022-11-22T13:01:03.390Z,15.28
2022-11-22T13:03:36.604Z,15.34
2022-11-22T13:06:08.593Z,15.35
2022-11-22T13:08:51.620Z,15.36
2022-11-22T13:11:27.981Z,15.38
2022-11-22T13:14:08.131Z,15.37
2022-11-22T13:16:34.647Z,15.42
2022-11-22T13:19:06.353Z,15.40
2022-11-22T13:22:00.112Z,15.37
2022-11-22T13:24:42.920Z,15.38
2022-11-22T13:27:27.981Z,15.42
2022-11-22T13:29:56.782Z,15.45
2022-11-22T13:32:28.026Z,15.42
2022-11-22T13:35:03.723Z,15.40
2022-11-22T13:37:33.674Z,15.41
2022-11-22T13:40:15.257Z,15.39
2022-11-22T13:42:42.313Z,15.40
2022-11-22T13:45:25.243Z,15.38
2022-11-22T13:47:53.530Z,15.44
2022-11-22T13:51:01.686Z,15.42
2022-11-22T13:53:29.220Z,15.47
2022-11-22T13:55:57.592Z,15.50
2022-11-22T13:58:24.192Z,15.47
2022-11-22T14:00:51.959Z,15.42
2022-11-22T14:03:33.485Z,15.41
2022-11-22T14:06:01.180Z,15.37
2022-11-22T14:08:35.732Z,15.35
2022-11-22T14:11:13.802Z,15.30
2022-11-22T14:14:06.902Z,15.27
2022-11-22T14:16:56.333Z,15.25
2022-11-22T14:19:51.163Z,15.24
2022-11-22T14:22:27.068Z,15.24
2022-11-22T14:25:06.123Z,15.23
2022-11-22T14:28:08.888Z,15.22
2022-11-22T14:30:52.743Z,15.22
2022-11-22T14:33:22.505Z,15.25
2022-11-22T14:36:07.006Z,15.22
2022-11-22T14:38:35.532Z,15.26
2022-11-22T14:41:20.758Z,15.26
2022-11-22T14:43:50.021Z,15.28
2022-11-22T14:46:51.235Z,15.25
2022-11-22T14:49:27.131Z,15.21
2022-11-22T14:51:57.455Z,15.19
2022-11-22T14:54:30.374Z,15.13
2022-11-22T14:57:04.304Z,15.10
2022-11-22T15:00:03.242Z,15.03
2022-11-22T15:02:51.843Z,14.99
2022-11-22T15:09:10.443Z,14.94
2022-11-22T15:09:14.564Z,14.94
2022-11-22T15:11:39.346Z,14.86
2022-11-22T15:14:17.886Z,14.81
2022-11-22T15:59:41.789Z,14.11
2022-11-22T16:02:19.594Z,14.06
2022-11-22T16:06:04.696Z,14.04
2022-11-22T16:07:44.729Z,14.05
2022-11-22T16:10:23.947Z,14.01
2022-11-22T16:12:51.839Z,14.03
2022-11-22T16:15:29.139Z,13.98
2022-11-22T16:18:08.542Z,13.97
2022-11-22T16:20:38.795Z,13.97
2022-11-22T16:23:11.926Z,13.92
2022-11-22T16:25:41.646Z,13.90
2022-11-22T16:28:20.472Z,13.83
2022-11-22T16:30:48.094Z,13.81
2022-11-22T16:33:14.639Z,13.76
2022-11-22T16:35:40.980Z,13.70
2022-11-22T16:38:07.685Z,13.66
2022-11-22T16:40:44.074Z,13.59
2022-11-22T16:43:24.748Z,13.57
2022-11-22T16:45:51.847Z,13.56
2022-11-22T16:48:37.640Z,13.52
2022-11-22T16:51:06.627Z,13.50
2022-11-22T16:53:45.343Z,13.46
2022-11-22T16:56:19.212Z,13.46
2022-11-22T16:58:46.599Z,13.47
2022-11-22T17:01:16.139Z,13.47
2022-11-22T17:03:45.036Z,13.49
2022-11-22T17:06:18.579Z,13.50
2022-11-22T17:08:46.895Z,13.53
2022-11-22T17:11:15.949Z,13.54
2022-11-22T17:13:42.803Z,13.58
2022-11-22T17:16:10.865Z,13.58
2022-11-22T17:18:38.328Z,13.62
2022-11-22T17:21:10.418Z,13.63
2022-11-22T17:23:39.020Z,13.63
2022-11-22T17:26:05.538Z,13.67
2022-11-22T17:28:33.666Z,13.71
2022-11-22T17:31:04.512Z,13.73
2022-11-22T17:33:31.058Z,13.74
2022-11-22T17:35:57.586Z,13.76
2022-11-22T17:38:24.092Z,13.79
2022-11-22T17:40:58.466Z,13.78
2022-11-22T17:43:24.795Z,13.82
2022-11-22T17:45:52.347Z,13.85
2022-11-22T17:48:18.762Z,13.88
2022-11-22T17:50:45.166Z,13.90
2022-11-22T17:53:11.655Z,13.94
2022-11-22T17:56:02.639Z,13.96
2022-11-22T17:58:25.259Z,13.99
2022-11-22T18:00:51.582Z,14.04
2022-11-22T18:03:17.941Z,14.05
2022-11-22T18:05:44.371Z,14.08
2022-11-22T18:08:11.459Z,14.08
2022-11-22T18:10:38.419Z,14.10
2022-11-22T18:13:20.859Z,14.13
2022-11-22T18:16:00.135Z,14.15
2022-11-22T18:18:55.011Z,14.17
2022-11-22T18:21:17.652Z,14.18
2022-11-22T18:23:45.848Z,14.19
2022-11-22T18:29:35.161Z,14.20
2022-11-22T18:31:52.038Z,14.20
2022-11-22T18:34:18.936Z,14.19
2022-11-22T18:39:35.826Z,14.13
2022-11-22T18:42:03.904Z,14.12
2022-11-22T18:44:30.423Z,14.10
2022-11-22T18:46:57.089Z,14.06
2022-11-22T18:49:23.461Z,14.04
2022-11-22T18:51:49.873Z,14.03
2022-11-22T18:54:16.520Z,14.01
2022-11-22T18:56:42.977Z,13.99
2022-11-22T18:59:12.575Z,13.99
2022-11-22T19:01:39.622Z,13.99
2022-11-22T19:04:06.148Z,14.00
2022-11-22T19:06:32.724Z,14.02
2022-11-22T19:08:59.091Z,14.03
2022-11-22T19:11:26.168Z,14.04
2022-11-22T19:13:52.904Z,14.05
2022-11-22T19:16:22.447Z,14.05
2022-11-22T19:18:49.933Z,14.07
2022-11-22T19:21:18.760Z,14.08
2022-11-22T19:23:45.818Z,14.10
2022-11-22T19:26:19.344Z,14.10
2022-11-22T19:28:52.083Z,14.12
2022-11-22T19:31:20.396Z,14.12
2022-11-22T19:33:47.350Z,14.15
2022-11-22T19:36:19.054Z,14.14
2022-11-22T19:38:45.861Z,14.17
2022-11-22T19:41:20.403Z,14.14
2022-11-22T19:43:49.074Z,14.17
2022-11-22T19:46:17.598Z,14.17
2022-11-22T19:48:47.476Z,14.20
2022-11-22T19:51:15.524Z,14.23
2022-11-22T19:53:42.342Z,14.23
2022-11-22T19:56:14.478Z,14.20
2022-11-22T19:58:41.466Z,14.21
2022-11-22T20:01:10.682Z,14.21
2022-11-22T20:03:39.151Z,14.21
2022-11-22T20:06:08.499Z,14.20
2022-11-22T20:08:35.487Z,14.19
2022-11-22T20:11:02.116Z,14.19
2022-11-22T20:13:29.729Z,14.20
2022-11-22T20:15:57.300Z,14.21
2022-11-22T20:18:24.006Z,14.19
2022-11-22T20:20:51.617Z,14.20
2022-11-22T20:23:17.957Z,14.19
2022-11-22T20:25:44.616Z,14.18
2022-11-22T20:28:12.772Z,14.18
2022-11-22T20:30:39.344Z,14.19
2022-11-22T20:33:05.779Z,14.17
2022-11-22T20:35:32.290Z,14.17
2022-11-22T20:38:00.214Z,14.15
2022-11-22T20:40:27.776Z,14.14
2022-11-22T20:42:54.320Z,14.14
2022-11-22T20:45:21.173Z,14.12
2022-11-22T20:47:48.756Z,14.11
2022-11-22T20:50:15.562Z,14.11
2022-11-22T20:52:42.092Z,14.11
2022-11-22T20:55:10.547Z,14.10
2022-11-22T20:57:38.500Z,14.11
2022-11-22T21:00:05.273Z,14.10
2022-11-22T21:02:34.442Z,14.09
2022-11-22T21:05:00.936Z,14.10
2022-11-22T21:07:27.636Z,14.10
2022-11-22T21:09:56.371Z,14.09
2022-11-22T21:12:22.873Z,14.10
2022-11-22T21:14:53.505Z,14.10
2022-11-22T21:17:41.919Z,14.10
2022-11-22T21:20:06.830Z,14.11
2022-11-22T21:22:33.379Z,14.10
2022-11-22T21:24:59.782Z,14.10
2022-11-22T21:27:26.278Z,14.09
2022-11-22T21:29:53.969Z,14.09
2022-11-22T21:32:20.367Z,14.06
2022-11-22T21:34:46.698Z,14.05
2022-11-22T21:37:13.016Z,14.03
2022-11-22T21:39:39.524Z,14.02
2022-11-22T21:42:05.886Z,14.03
2022-11-22T21:44:33.726Z,14.03
2022-11-22T21:47:00.324Z,14.06
2022-11-22T21:49:26.657Z,14.07
2022-11-22T21:51:53.045Z,14.09
2022-11-22T21:54:19.594Z,14.12
2022-11-22T21:56:47.745Z,14.14
2022-11-22T21:59:14.092Z,14.18
2022-11-22T22:01:40.502Z,14.20
2022-11-22T22:04:07.049Z,14.22
2022-11-22T22:06:34.437Z,14.24
2022-11-22T22:09:01.104Z,14.26
2022-11-22T22:11:27.463Z,14.28
2022-11-22T22:13:55.016Z,14.31
2022-11-22T22:16:23.931Z,14.33
2022-11-22T22:18:50.361Z,14.35
2022-11-22T22:21:18.237Z,14.36
2022-11-22T22:23:45.850Z,14.38
2022-11-22T22:26:15.413Z,14.39
2022-11-22T22:28:44.852Z,14.42
2022-11-22T22:31:23.021Z,14.43
2022-11-22T22:33:57.468Z,14.42
2022-11-22T22:36:25.749Z,14.46
2022-11-22T22:38:52.309Z,14.46
2022-11-22T22:41:19.191Z,14.45
2022-11-22T22:43:48.019Z,14.48
2022-11-22T22:46:15.740Z,14.47
2022-11-22T22:48:43.037Z,14.51
2022-11-22T22:51:15.314Z,14.50
2022-11-22T22:53:42.715Z,14.52
2022-11-22T22:56:09.928Z,14.54
2022-11-22T22:58:36.936Z,14.55
2022-11-22T23:01:06.161Z,14.56
2022-11-22T23:03:33.119Z,14.58
2022-11-22T23:06:03.874Z,14.58
2022-11-22T23:08:30.234Z,14.60
2022-11-22T23:11:03.229Z,14.60
2022-11-22T23:13:29.759Z,14.62
2022-11-22T23:15:59.029Z,14.63
2022-11-22T23:18:25.488Z,14.64
2022-11-22T23:20:52.155Z,14.64
2022-11-22T23:23:18.466Z,14.66
2022-11-22T23:25:46.259Z,14.65
2022-11-22T23:28:12.628Z,14.68
2022-11-22T23:30:39.320Z,14.69
2022-11-22T23:33:08.815Z,14.70
2022-11-22T23:35:35.645Z,14.70
2022-11-22T23:38:03.661Z,14.70
2022-11-22T23:40:30.960Z,14.71
2022-11-22T23:42:58.534Z,14.71
2022-11-22T23:45:25.064Z,14.72
2022-11-22T23:47:52.280Z,14.71
2022-11-22T23:50:19.136Z,14.72
2022-11-22T23:52:45.502Z,14.72
2022-11-22T23:55:12.130Z,14.71
2022-11-22T23:57:38.511Z,14.72
